createdAt,value
2018-09-05T00:00:54.871Z,4.80
2018-09-05T00:03:22.883Z,3.90
2018-09-05T00:05:50.617Z,4.20
2018-09-05T00:08:18.664Z,4.03
2018-09-05T00:10:46.423Z,4.07
2018-09-05T00:13:14.129Z,4.20
2018-09-05T00:15:42.307Z,4.50
2018-09-05T00:18:10.184Z,4.10
2018-09-05T00:20:37.913Z,4.13
2018-09-05T00:23:05.563Z,4.53
2018-09-05T00:25:33.439Z,3.63
2018-09-05T00:28:01.243Z,4.43
2018-09-05T00:30:29.228Z,4.40
2018-09-05T00:32:56.969Z,4.10
2018-09-05T00:35:24.699Z,4.20
2018-09-05T00:37:52.720Z,4.00
2018-09-05T00:40:20.981Z,4.53
2018-09-05T00:42:48.987Z,3.93
2018-09-05T00:45:18.013Z,4.53
2018-09-05T00:47:45.880Z,4.30
2018-09-05T00:50:14.151Z,4.40
2018-09-05T00:52:42.045Z,4.10
2018-09-05T00:55:09.681Z,3.93
2018-09-05T00:57:37.342Z,4.13
2018-09-05T01:00:05.189Z,4.20
2018-09-05T01:02:32.866Z,4.10
2018-09-05T01:05:00.753Z,4.10
2018-09-05T01:07:29.165Z,3.97
2018-09-05T01:09:57.385Z,4.37
2018-09-05T01:12:25.428Z,3.90
2018-09-05T01:14:54.310Z,4.33
2018-09-05T01:17:22.503Z,4.00
2018-09-05T01:19:50.349Z,4.13
2018-09-05T01:22:18.054Z,4.10
2018-09-05T01:24:46.309Z,3.80
2018-09-05T01:27:14.766Z,4.23
2018-09-05T01:29:42.529Z,4.40
2018-09-05T01:32:11.318Z,4.20
2018-09-05T01:34:40.281Z,4.20
2018-09-05T01:37:08.893Z,4.57
2018-09-05T01:39:36.903Z,4.17
2018-09-05T01:42:04.980Z,4.20
2018-09-05T01:44:32.931Z,4.20
2018-09-05T01:47:01.223Z,4.70
2018-09-05T01:49:29.128Z,4.63
2018-09-05T01:51:58.201Z,4.30
2018-09-05T01:54:25.911Z,4.03
2018-09-05T01:56:54.678Z,4.83
2018-09-05T01:59:22.514Z,5.33
2018-09-05T02:01:50.225Z,4.17
2018-09-05T02:04:19.175Z,4.60
2018-09-05T02:06:47.038Z,4.00
2018-09-05T02:09:14.780Z,4.60
2018-09-05T02:11:42.890Z,4.97
2018-09-05T02:14:11.542Z,4.47
2018-09-05T02:16:39.728Z,5.00
2018-09-05T02:19:07.332Z,4.40
2018-09-05T02:21:34.946Z,4.10
2018-09-05T02:24:03.268Z,4.23
2018-09-05T02:26:30.902Z,4.70
2018-09-05T02:28:58.809Z,5.33
2018-09-05T02:31:26.486Z,5.17
2018-09-05T02:33:54.406Z,4.93
2018-09-05T02:36:22.058Z,4.97
2018-09-05T02:38:49.741Z,4.63
2018-09-05T02:41:17.405Z,5.40
2018-09-05T02:43:50.763Z,5.00
2018-09-05T02:46:18.886Z,4.97
2018-09-05T02:48:47.065Z,5.10
2018-09-05T02:51:14.791Z,5.40
2018-09-05T02:53:42.492Z,5.30
2018-09-05T02:56:10.757Z,5.47
2018-09-05T02:58:38.730Z,4.80
2018-09-05T03:01:06.727Z,5.80
2018-09-05T03:03:34.879Z,5.40
2018-09-05T03:06:02.911Z,4.90
2018-09-05T03:08:30.574Z,4.73
2018-09-05T03:10:58.485Z,5.30
2018-09-05T03:13:26.470Z,5.73
2018-09-05T03:15:54.475Z,5.63
2018-09-05T03:18:22.368Z,5.30
2018-09-05T03:20:50.099Z,5.50
2018-09-05T03:23:18.079Z,4.90
2018-09-05T03:25:45.659Z,5.80
2018-09-05T03:28:13.271Z,5.00
2018-09-05T03:30:41.244Z,5.40
2018-09-05T03:33:08.963Z,5.40
2018-09-05T03:35:36.666Z,4.70
2018-09-05T03:38:04.653Z,6.17
2018-09-05T03:40:32.293Z,5.50
2018-09-05T03:43:00.286Z,4.80
2018-09-05T03:45:27.883Z,4.67
2018-09-05T03:47:55.534Z,5.00
2018-09-05T03:50:23.124Z,5.67
2018-09-05T03:52:51.111Z,5.90
2018-09-05T03:55:19.093Z,5.50
2018-09-05T03:57:46.937Z,5.43
2018-09-05T04:00:14.909Z,5.13
2018-09-05T04:02:43.159Z,5.40
2018-09-05T04:05:10.921Z,5.40
2018-09-05T04:07:38.942Z,5.10
2018-09-05T04:10:06.642Z,4.90
2018-09-05T04:12:38.802Z,5.30
2018-09-05T04:15:06.796Z,5.57
2018-09-05T04:17:34.813Z,5.97
2018-09-05T04:20:02.445Z,6.40
2018-09-05T04:22:30.132Z,5.80
2018-09-05T04:24:57.813Z,5.63
2018-09-05T04:27:26.028Z,5.77
2018-09-05T04:29:53.791Z,6.60
2018-09-05T04:32:21.641Z,6.40
2018-09-05T04:34:49.544Z,5.90
2018-09-05T04:37:17.164Z,5.87
2018-09-05T04:39:44.814Z,5.20
2018-09-05T04:42:12.466Z,6.03
2018-09-05T04:44:41.002Z,6.00
2018-09-05T04:47:09.233Z,6.13
2018-09-05T04:49:36.856Z,5.47
2018-09-05T04:52:04.766Z,5.83
2018-09-05T04:54:32.883Z,6.13
2018-09-05T04:57:00.723Z,5.30
2018-09-05T04:59:28.371Z,4.70
2018-09-05T05:01:56.362Z,4.83
2018-09-05T05:04:24.035Z,4.90
2018-09-05T05:06:51.916Z,4.87
2018-09-05T05:09:19.577Z,4.60
2018-09-05T05:11:47.799Z,5.13
2018-09-05T05:14:15.440Z,4.00
2018-09-05T05:16:43.093Z,5.00
2018-09-05T05:19:10.746Z,5.00
2018-09-05T05:21:38.424Z,6.17
2018-09-05T05:24:06.329Z,5.70
2018-09-05T05:26:33.987Z,6.63
2018-09-05T05:29:01.698Z,5.50
2018-09-05T05:31:29.360Z,7.23
2018-09-05T05:33:57.149Z,7.07
2018-09-05T05:36:24.818Z,6.60
2018-09-05T05:38:52.846Z,5.93
2018-09-05T05:41:20.485Z,5.83
2018-09-05T05:43:48.373Z,6.47
2018-09-05T05:46:16.376Z,5.93
2018-09-05T05:48:44.737Z,6.07
2018-09-05T05:54:02.633Z,5.33
2018-09-05T05:56:30.449Z,5.87
2018-09-05T05:58:58.699Z,5.53
2018-09-05T06:01:26.379Z,5.87
2018-09-05T06:03:54.551Z,5.83
2018-09-05T06:06:52.413Z,5.63
2018-09-05T06:09:20.008Z,6.13
2018-09-05T06:11:48.021Z,5.97
2018-09-05T06:14:15.640Z,5.80
2018-09-05T06:16:43.327Z,5.70
2018-09-05T06:19:11.251Z,6.43
2018-09-05T06:21:39.099Z,5.53
2018-09-05T06:24:07.051Z,4.70
2018-09-05T06:26:34.869Z,6.23
2018-09-05T06:29:02.929Z,5.93
2018-09-05T06:31:31.051Z,5.97
2018-09-05T06:33:59.072Z,5.40
2018-09-05T06:36:26.661Z,4.90
2018-09-05T06:38:54.812Z,4.90
2018-09-05T06:41:22.684Z,4.50
2018-09-05T06:43:50.720Z,5.37
2018-09-05T06:46:18.674Z,4.80
2018-09-05T06:48:46.302Z,3.90
2018-09-05T06:51:14.378Z,4.13
2018-09-05T06:53:42.033Z,4.43
2018-09-05T06:56:10.754Z,4.50
2018-09-05T06:58:38.553Z,4.63
2018-09-05T07:01:07.035Z,4.23
2018-09-05T07:03:35.453Z,4.33
2018-09-05T07:06:03.268Z,4.03
2018-09-05T07:08:30.929Z,4.07
2018-09-05T07:10:58.887Z,4.10
2018-09-05T07:13:26.493Z,4.07
2018-09-05T07:15:54.163Z,3.80
2018-09-05T07:18:22.204Z,3.97
2018-09-05T07:20:49.338Z,3.33
2018-09-05T07:23:17.056Z,3.87
2018-09-05T07:25:44.720Z,4.13
2018-09-05T07:28:12.654Z,4.73
2018-09-05T07:30:40.574Z,4.57
2018-09-05T07:33:08.160Z,4.10
2018-09-05T07:35:36.194Z,4.17
2018-09-05T07:38:03.734Z,4.00
2018-09-05T07:40:32.053Z,4.07
2018-09-05T07:42:59.729Z,3.90
2018-09-05T07:45:27.444Z,3.53
2018-09-05T07:47:55.390Z,3.53
2018-09-05T07:50:23.294Z,3.90
2018-09-05T07:52:51.211Z,3.40
2018-09-05T07:55:19.236Z,3.87
2018-09-05T07:57:47.553Z,3.80
2018-09-05T08:00:15.495Z,3.57
2018-09-05T08:02:43.172Z,4.20
2018-09-05T08:05:11.074Z,4.20
2018-09-05T08:07:38.690Z,4.30
2018-09-05T08:10:06.356Z,3.93
2018-09-05T08:12:34.562Z,4.20
2018-09-05T08:15:02.180Z,4.47
2018-09-05T08:17:29.863Z,4.10
2018-09-05T08:19:57.465Z,4.07
2018-09-05T08:22:25.524Z,3.73
2018-09-05T08:24:53.481Z,3.63
2018-09-05T08:27:22.199Z,4.43
2018-09-05T08:29:50.530Z,3.90
2018-09-05T08:32:18.673Z,4.30
2018-09-05T08:34:46.710Z,4.23
2018-09-05T08:37:14.709Z,4.10
2018-09-05T08:39:42.533Z,4.30
2018-09-05T08:42:10.635Z,3.63
2018-09-05T08:44:38.464Z,4.23
2018-09-05T08:47:05.994Z,4.33
2018-09-05T08:49:33.876Z,4.70
2018-09-05T08:52:02.026Z,4.40
2018-09-05T08:54:29.645Z,4.23
2018-09-05T08:56:57.301Z,4.13
2018-09-05T08:59:25.210Z,4.50
2018-09-05T09:01:53.188Z,4.07
2018-09-05T09:04:21.089Z,4.97
2018-09-05T09:06:48.689Z,4.33
2018-09-05T09:09:16.443Z,4.37
2018-09-05T09:11:44.096Z,4.10
2018-09-05T09:14:11.973Z,4.27
2018-09-05T09:16:40.339Z,4.37
2018-09-05T09:19:08.485Z,4.30
2018-09-05T09:21:36.122Z,4.20
2018-09-05T09:24:04.162Z,3.97
2018-09-05T09:26:31.761Z,5.13
2018-09-05T09:29:00.017Z,5.07
2018-09-05T09:31:28.316Z,5.70
2018-09-05T09:33:56.062Z,5.13
2018-09-05T09:36:23.760Z,5.83
2018-09-05T09:38:51.701Z,4.93
2018-09-05T09:41:19.651Z,5.03
2018-09-05T09:43:47.582Z,4.77
2018-09-05T09:46:15.592Z,4.93
2018-09-05T09:48:43.202Z,5.40
2018-09-05T09:51:10.865Z,5.03
2018-09-05T09:53:38.555Z,5.27
2018-09-05T09:56:06.196Z,5.30
2018-09-05T09:58:34.167Z,4.90
2018-09-05T10:01:07.431Z,4.90
2018-09-05T10:03:40.864Z,5.00
2018-09-05T10:06:14.201Z,5.60
2018-09-05T10:08:47.437Z,5.00
2018-09-05T10:11:16.918Z,4.97
2018-09-05T10:13:50.482Z,5.43
2018-09-05T10:16:24.106Z,4.57
2018-09-05T10:18:52.972Z,5.03
2018-09-05T10:21:21.029Z,4.90
2018-09-05T10:23:48.673Z,5.40
2018-09-05T10:26:16.538Z,4.87
2018-09-05T10:28:44.494Z,5.30
2018-09-05T10:31:12.322Z,5.23
2018-09-05T10:33:40.185Z,5.20
2018-09-05T10:36:08.034Z,5.00
2018-09-05T10:38:35.742Z,6.20
2018-09-05T10:41:03.473Z,5.53
2018-09-05T10:43:31.101Z,5.70
2018-09-05T10:45:58.752Z,5.20
2018-09-05T10:48:26.501Z,5.83
2018-09-05T10:50:54.313Z,5.20
2018-09-05T10:53:21.955Z,6.00
2018-09-05T10:55:49.898Z,5.70
2018-09-05T10:58:17.876Z,5.37
2018-09-05T11:00:45.662Z,5.80
2018-09-05T11:03:13.565Z,5.80
2018-09-05T11:05:41.188Z,4.70
2018-09-05T11:08:08.845Z,4.73
2018-09-05T11:10:36.475Z,4.83
2018-09-05T11:13:04.745Z,5.10
2018-09-05T11:15:32.686Z,4.83
2018-09-05T11:18:00.318Z,5.47
2018-09-05T11:20:28.036Z,5.20
2018-09-05T11:22:55.696Z,4.97
2018-09-05T11:25:23.782Z,5.33
2018-09-05T11:27:51.428Z,5.20
2018-09-05T11:30:19.621Z,4.90
2018-09-05T11:32:47.302Z,5.43
2018-09-05T11:35:15.208Z,5.67
2018-09-05T11:37:42.873Z,4.90
2018-09-05T11:40:10.980Z,6.47
2018-09-05T11:42:38.927Z,6.17
2018-09-05T11:45:06.642Z,6.53
2018-09-05T11:47:34.494Z,5.23
2018-09-05T11:50:02.110Z,6.80
2018-09-05T11:52:31.039Z,5.80
2018-09-05T11:54:59.108Z,5.60
2018-09-05T11:57:26.848Z,8.07
2018-09-05T11:59:55.262Z,8.23
2018-09-05T12:02:23.182Z,7.37
2018-09-05T12:04:51.583Z,7.90
2018-09-05T12:07:19.433Z,7.17
2018-09-05T12:09:47.092Z,7.10
2018-09-05T12:12:14.939Z,7.00
2018-09-05T12:14:42.531Z,8.93
2018-09-05T12:17:10.373Z,10.20
2018-09-05T12:19:38.073Z,7.67
2018-09-05T12:22:05.915Z,8.23
2018-09-05T12:24:33.861Z,7.80
2018-09-05T12:27:01.637Z,7.37
2018-09-05T12:29:30.676Z,7.60
2018-09-05T12:31:58.801Z,7.70
2018-09-05T12:34:26.432Z,7.40
2018-09-05T12:36:54.085Z,7.93
2018-09-05T12:39:21.759Z,8.33
2018-09-05T12:41:49.415Z,8.27
2018-09-05T12:44:17.398Z,6.67
2018-09-05T12:46:45.206Z,6.60
2018-09-05T12:49:12.809Z,6.70
2018-09-05T12:51:41.033Z,7.10
2018-09-05T12:54:09.447Z,6.13
2018-09-05T12:56:37.079Z,6.97
2018-09-05T12:59:04.757Z,6.67
2018-09-05T13:01:32.389Z,7.87
2018-09-05T13:04:00.395Z,6.70
2018-09-05T13:06:28.272Z,6.90
2018-09-05T13:08:56.472Z,6.63
2018-09-05T13:11:24.148Z,6.40
2018-09-05T13:13:52.438Z,6.77
2018-09-05T13:16:20.371Z,6.40
2018-09-05T13:18:48.276Z,6.97
2018-09-05T13:21:15.954Z,6.30
2018-09-05T13:23:44.196Z,7.27
2018-09-05T13:26:12.425Z,5.90
2018-09-05T13:28:40.088Z,6.40
2018-09-05T13:31:08.231Z,5.53
2018-09-05T13:33:35.921Z,6.00
2018-09-05T13:36:03.600Z,7.00
2018-09-05T13:38:31.511Z,6.57
2018-09-05T13:40:59.174Z,6.97
2018-09-05T13:43:26.869Z,6.07
2018-09-05T13:45:54.495Z,5.10
2018-09-05T13:48:22.166Z,5.50
2018-09-05T13:50:49.889Z,5.53
2018-09-05T13:53:17.573Z,6.90
2018-09-05T13:55:45.586Z,6.20
2018-09-05T13:58:13.380Z,6.80
2018-09-05T14:00:41.338Z,6.97
2018-09-05T14:03:09.365Z,6.20
2018-09-05T14:05:36.961Z,6.97
2018-09-05T14:08:04.963Z,6.50
2018-09-05T14:10:33.235Z,6.60
2018-09-05T14:13:01.606Z,5.70
2018-09-05T14:15:29.244Z,6.80
2018-09-05T14:17:57.148Z,7.43
2018-09-05T14:20:24.896Z,6.57
2018-09-05T14:22:52.515Z,7.50
2018-09-05T14:25:20.676Z,5.80
2018-09-05T14:27:48.328Z,6.60
2018-09-05T14:30:16.307Z,6.40
2018-09-05T14:32:44.288Z,6.67
2018-09-05T14:35:12.227Z,5.73
2018-09-05T14:37:40.208Z,6.10
2018-09-05T14:40:07.972Z,6.07
2018-09-05T14:42:35.939Z,5.90
2018-09-05T14:45:03.608Z,5.23
2018-09-05T14:47:31.573Z,5.87
2018-09-05T14:49:59.578Z,5.93
2018-09-05T14:52:27.484Z,6.20
2018-09-05T14:54:55.170Z,5.40
2018-09-05T14:57:23.411Z,5.57
2018-09-05T14:59:51.343Z,5.70
2018-09-05T15:02:19.248Z,5.50
2018-09-05T15:04:47.598Z,5.00
2018-09-05T15:07:15.224Z,5.40
2018-09-05T15:09:42.890Z,5.40
2018-09-05T15:12:10.771Z,5.93
2018-09-05T15:14:38.850Z,4.73
2018-09-05T15:17:07.203Z,4.90
2018-09-05T15:19:35.166Z,4.87
2018-09-05T15:22:02.956Z,5.10
2018-09-05T15:24:30.751Z,5.10
2018-09-05T15:26:58.388Z,5.23
2018-09-05T15:29:26.057Z,4.33
2018-09-05T15:31:54.339Z,4.43
2018-09-05T15:34:22.222Z,4.73
2018-09-05T15:36:49.934Z,5.10
2018-09-05T15:39:17.627Z,5.37
2018-09-05T15:41:45.289Z,5.30
2018-09-05T15:44:12.908Z,4.47
2018-09-05T15:46:40.625Z,4.03
2018-09-05T15:49:08.638Z,5.70
2018-09-05T15:51:36.610Z,4.83
2018-09-05T15:54:04.355Z,4.87
2018-09-05T15:56:32.212Z,4.30
2018-09-05T15:58:59.919Z,4.93
2018-09-05T16:01:27.778Z,4.80
2018-09-05T16:03:55.737Z,4.20
2018-09-05T16:06:23.628Z,4.83
2018-09-05T16:08:51.583Z,5.17
2018-09-05T16:11:19.278Z,4.90
2018-09-05T16:13:47.285Z,4.43
2018-09-05T16:16:15.198Z,4.50
2018-09-05T16:18:42.871Z,4.53
2018-09-05T16:21:11.009Z,3.87
2018-09-05T16:23:38.913Z,4.13
2018-09-05T16:26:06.822Z,3.80
2018-09-05T16:28:34.718Z,4.40
2018-09-05T16:31:02.565Z,4.70
2018-09-05T16:33:31.136Z,4.90
2018-09-05T16:35:58.800Z,4.60
2018-09-05T16:38:26.526Z,4.60
2018-09-05T16:40:54.838Z,4.30
2018-09-05T16:43:22.482Z,4.60
2018-09-05T16:45:50.160Z,3.70
2018-09-05T16:48:17.910Z,4.30
2018-09-05T16:50:45.973Z,3.97
2018-09-05T16:53:13.629Z,4.97
2018-09-05T16:55:41.240Z,3.97
2018-09-05T16:58:08.895Z,4.30
2018-09-05T17:00:36.756Z,4.00
2018-09-05T17:03:04.397Z,4.00
2018-09-05T17:05:32.008Z,4.30
2018-09-05T17:07:59.757Z,3.60
2018-09-05T17:10:27.381Z,3.33
2018-09-05T17:12:55.239Z,4.10
2018-09-05T17:15:22.934Z,3.90
2018-09-05T17:17:50.561Z,3.87
2018-09-05T17:20:18.781Z,3.87
2018-09-05T17:22:46.475Z,3.93
2018-09-05T17:25:14.108Z,4.57
2018-09-05T17:27:41.855Z,4.70
2018-09-05T17:30:09.480Z,3.90
2018-09-05T17:32:37.154Z,4.13
2018-09-05T17:35:05.656Z,4.10
2018-09-05T17:37:33.393Z,4.57
2018-09-05T17:40:01.944Z,4.43
2018-09-05T17:42:29.590Z,4.40
2018-09-05T17:44:57.231Z,3.70
2018-09-05T17:47:24.929Z,3.67
2018-09-05T17:49:52.882Z,4.40
2018-09-05T17:52:21.116Z,4.00
2018-09-05T17:54:48.865Z,3.77
2018-09-05T17:57:16.549Z,4.17
2018-09-05T17:59:44.263Z,4.20
2018-09-05T18:02:11.905Z,3.90
2018-09-05T18:04:39.842Z,5.27
2018-09-05T18:07:07.852Z,5.50
2018-09-05T18:09:35.855Z,4.53
2018-09-05T18:12:03.811Z,5.00
2018-09-05T18:14:31.926Z,5.00
2018-09-05T18:16:59.647Z,5.40
2018-09-05T18:19:27.588Z,4.87
2018-09-05T18:21:55.495Z,5.27
2018-09-05T18:24:23.449Z,4.60
2018-09-05T18:26:51.725Z,6.87
2018-09-05T18:29:19.653Z,7.23
2018-09-05T18:31:47.293Z,6.80
2018-09-05T18:34:15.141Z,6.07
2018-09-05T18:36:42.881Z,5.50
2018-09-05T18:39:10.783Z,5.27
2018-09-05T18:41:38.592Z,5.80
2018-09-05T18:44:06.246Z,5.30
2018-09-05T18:46:33.906Z,4.93
2018-09-05T18:49:01.607Z,4.77
2018-09-05T18:51:29.478Z,4.97
2018-09-05T18:53:57.305Z,5.07
2018-09-05T18:56:25.118Z,5.37
2018-09-05T18:58:52.885Z,4.67
2018-09-05T19:01:20.553Z,4.90
2018-09-05T19:03:48.149Z,4.53
2018-09-05T19:06:15.767Z,4.70
2018-09-05T19:08:43.810Z,4.30
2018-09-05T19:11:11.699Z,4.30
2018-09-05T19:13:39.304Z,4.67
2018-09-05T19:16:06.984Z,5.17
2018-09-05T19:18:35.291Z,4.97
2018-09-05T19:21:03.253Z,4.27
2018-09-05T19:23:31.583Z,5.50
2018-09-05T19:25:59.552Z,6.10
2018-09-05T19:28:27.512Z,6.37
2018-09-05T19:30:55.145Z,5.70
2018-09-05T19:33:23.164Z,5.30
2018-09-05T19:35:50.813Z,5.70
2018-09-05T19:38:18.466Z,5.47
2018-09-05T19:40:46.706Z,4.70
2018-09-05T19:43:14.863Z,6.30
2018-09-05T19:45:42.582Z,6.03
2018-09-05T19:48:10.668Z,5.70
2018-09-05T19:50:38.749Z,5.30
2018-09-05T19:53:06.784Z,5.90
2018-09-05T19:55:34.368Z,4.43
2018-09-05T19:58:02.036Z,5.13
2018-09-05T20:00:30.155Z,5.40
2018-09-05T20:02:57.849Z,4.57
2018-09-05T20:05:26.118Z,4.40
2018-09-05T20:07:53.707Z,4.53
2018-09-05T20:10:21.870Z,4.67
2018-09-05T20:12:50.129Z,4.03
2018-09-05T20:15:18.036Z,4.40
2018-09-05T20:17:45.695Z,4.50
2018-09-05T20:20:13.420Z,4.80
2018-09-05T20:22:41.226Z,4.47
2018-09-05T20:25:09.403Z,3.97
2018-09-05T20:27:37.585Z,3.87
2018-09-05T20:30:05.260Z,3.97
2018-09-05T20:32:32.901Z,4.20
2018-09-05T20:35:00.535Z,4.13
2018-09-05T20:37:28.223Z,4.27
2018-09-05T20:39:55.854Z,3.63
2018-09-05T20:42:24.029Z,3.77
2018-09-05T20:44:51.873Z,4.67
2018-09-05T20:47:19.784Z,3.70
2018-09-05T20:49:47.753Z,3.90
2018-09-05T20:52:15.689Z,3.23
2018-09-05T20:54:43.373Z,3.70
2018-09-05T20:57:11.248Z,3.60
2018-09-05T20:59:38.928Z,3.80
2018-09-05T21:02:06.852Z,4.10
2018-09-05T21:04:34.541Z,3.20
2018-09-05T21:07:02.608Z,3.40
2018-09-05T21:09:30.570Z,3.40
2018-09-05T21:11:58.349Z,3.57
2018-09-05T21:14:26.003Z,4.40
2018-09-05T21:16:54.049Z,3.60
2018-09-05T21:19:22.001Z,4.00
2018-09-05T21:21:50.012Z,3.40
2018-09-05T21:24:17.839Z,4.50
2018-09-05T21:26:45.558Z,4.10
2018-09-05T21:29:13.203Z,4.00
2018-09-05T21:31:40.957Z,3.80
2018-09-05T21:34:08.578Z,4.27
2018-09-05T21:36:36.675Z,4.30
2018-09-05T21:39:06.400Z,4.60
2018-09-05T21:41:34.587Z,3.53
2018-09-05T21:44:02.533Z,3.87
2018-09-05T21:46:30.562Z,3.90
2018-09-05T21:48:58.261Z,3.77
2018-09-05T21:51:26.232Z,3.43
2018-09-05T21:53:53.910Z,3.80
2018-09-05T21:56:21.788Z,3.47
2018-09-05T21:58:49.415Z,3.63
2018-09-05T22:01:19.180Z,3.20
2018-09-05T22:03:48.085Z,4.17
2018-09-05T22:06:15.701Z,3.20
2018-09-05T22:08:43.805Z,3.33
2018-09-05T22:11:17.145Z,4.20
2018-09-05T22:13:45.274Z,3.37
2018-09-05T22:16:13.132Z,3.60
2018-09-05T22:18:40.753Z,3.53
2018-09-05T22:21:08.403Z,3.20
2018-09-05T22:23:36.450Z,3.30
2018-09-05T22:26:04.042Z,3.23
2018-09-05T22:28:31.779Z,3.33
2018-09-05T22:30:59.642Z,3.43
2018-09-05T22:33:27.279Z,3.23
2018-09-05T22:35:55.127Z,3.23
2018-09-05T22:38:23.348Z,4.20
2018-09-05T22:40:52.189Z,3.07
2018-09-05T22:43:31.531Z,3.73
2018-09-05T22:46:10.897Z,3.60
2018-09-05T22:49:04.762Z,4.67
2018-09-05T22:52:19.241Z,3.83
2018-09-05T22:55:04.585Z,3.70
2018-09-05T22:58:45.404Z,4.30
2018-09-05T23:01:51.591Z,3.70
2018-09-05T23:06:37.727Z,4.13
2018-09-05T23:09:07.504Z,3.73
2018-09-05T23:11:51.226Z,4.03
2018-09-05T23:14:41.554Z,3.50
2018-09-05T23:18:23.677Z,4.50
2018-09-05T23:21:15.060Z,4.20
2018-09-05T23:23:55.012Z,3.90
2018-09-05T23:26:22.961Z,4.00
2018-09-05T23:28:50.573Z,4.07
2018-09-05T23:31:18.497Z,3.70
2018-09-05T23:33:46.552Z,3.97
2018-09-05T23:36:14.463Z,3.30
2018-09-05T23:38:42.436Z,3.53
2018-09-05T23:41:10.417Z,3.50
2018-09-05T23:43:38.671Z,3.37
2018-09-05T23:46:06.319Z,3.43
2018-09-05T23:48:34.531Z,3.47
2018-09-05T23:51:03.577Z,3.60
2018-09-05T23:53:31.265Z,4.33
2018-09-05T23:55:59.263Z,4.30
2018-09-05T23:58:27.253Z,3.50
